Time;durP1;ratioP1;P1;durP2;ratioP2;P2;SDS_P1;SDS_P2;PMS_P1;PMS_P2;Temp;Humidity;BMP_temperature;BMP_pressure;BME280_temperature;BME280_humidity;BME280_pressure;Samples;Min_cycle;Max_cycle;Signal;HPM_P1;HPM_P2
2022/10/25 00:02:43;;;;;;;;;;;;;;;;;;;;;
2022/10/25 00:05:55;;;;;;;0.50;0.50;;;13.40;99.90;;;;;;4984817;28;20057;-88
2022/10/25 00:08:56;;;;;;;0.50;0.50;;;13.30;99.90;;;;;;4954900;28;20056;-89
2022/10/25 00:11:40;;;;;;;0.50;0.50;;;13.40;99.90;;;;;;4921499;28;20049;-92
2022/10/25 00:14:53;;;;;;;;;;;;;;;;;;;;;
2022/10/25 00:18:42;;;;;;;0.50;0.50;;;13.40;99.90;;;;;;4873823;28;20456;-89
2022/10/25 00:22:25;;;;;;;;;;;;;;;;;;;;;
2022/10/25 00:25:30;;;;;;;;;;;;;;;;;;;;;
2022/10/25 00:28:36;;;;;;;0.50;0.50;;;13.30;99.90;;;;;;4814985;29;20153;-88
2022/10/25 00:31:40;;;;;;;0.50;0.50;;;13.20;99.90;;;;;;4804605;29;20191;-90
2022/10/25 00:38:15;;;;;;;0.50;0.50;;;13.00;99.90;;;;;;4811134;29;20398;-89
2022/10/25 00:41:04;;;;;;;;;;;;;;;;;;;;;
2022/10/25 00:44:17;;;;;;;0.50;0.50;;;12.90;99.90;;;;;;4939916;28;20052;-90
2022/10/25 00:47:09;;;;;;;;;;;12.90;99.90;;;;;;4923969;28;20058;-87
2022/10/25 00:53:38;;;;;;;;;;;;;;;;;;;;;
2022/10/25 00:56:37;;;;;;;0.50;0.50;;;12.70;99.90;;;;;;5019299;28;20055;-89
2022/10/25 00:59:33;;;;;;;0.50;0.50;;;12.80;99.90;;;;;;4976194;28;20055;-88
2022/10/25 01:02:57;;;;;;;0.50;0.50;;;13.00;99.90;;;;;;5004281;28;20214;-87
2022/10/25 01:09:18;;;;;;;0.50;0.50;;;13.00;99.90;;;;;;4932276;28;20053;-89
2022/10/25 01:12:40;;;;;;;0.50;0.50;;;13.00;99.90;;;;;;4915365;28;20058;-89
2022/10/25 01:15:57;;;;;;;0.50;0.50;;;12.90;99.90;;;;;;5004209;28;20051;-89
2022/10/25 01:18:45;;;;;;;0.50;0.50;;;12.90;99.90;;;;;;4985337;28;20115;-85
2022/10/25 01:21:41;;;;;;;0.50;0.50;;;12.90;99.90;;;;;;5014529;28;20048;-89
2022/10/25 01:24:51;;;;;;;0.50;0.50;;;12.90;99.90;;;;;;5003153;28;20116;-88
2022/10/25 01:27:51;;;;;;;0.50;0.50;;;12.90;99.90;;;;;;4970053;28;20051;-84
2022/10/25 01:31:27;;;;;;;;;;;;;;;;;;;;;
2022/10/25 01:34:44;;;;;;;0.50;0.50;;;13.00;99.90;;;;;;5006949;28;20151;-89
2022/10/25 01:41:26;;;;;;;0.50;0.50;;;13.10;99.90;;;;;;5025649;28;20068;-88
2022/10/25 01:44:26;;;;;;;0.50;0.50;;;12.90;99.90;;;;;;5014193;28;20566;-87
2022/10/25 01:50:46;;;;;;;0.60;0.60;;;12.90;99.90;;;;;;4965486;28;20390;-89
2022/10/25 01:54:28;;;;;;;0.60;0.60;;;12.90;99.90;;;;;;4993842;28;20943;-89
2022/10/25 01:57:41;;;;;;;0.50;0.50;;;13.00;99.90;;;;;;4938751;28;20052;-90
2022/10/25 02:00:55;;;;;;;0.50;0.50;;;13.00;99.90;;;;;;4945687;28;20219;-94
2022/10/25 02:03:51;;;;;;;0.50;0.50;;;13.10;99.90;;;;;;4977880;28;20133;-88
2022/10/25 02:06:48;;;;;;;0.50;0.50;;;13.20;99.90;;;;;;4986900;28;20080;-88
2022/10/25 02:12:59;;;;;;;0.50;0.50;;;13.20;99.90;;;;;;4999515;28;20079;-91
2022/10/25 02:16:09;;;;;;;0.50;0.50;;;13.20;99.90;;;;;;4968021;28;20163;-92
2022/10/25 02:19:18;;;;;;;0.50;0.50;;;13.20;99.90;;;;;;4990920;28;20044;-87
2022/10/25 02:21:54;;;;;;;0.60;0.60;;;13.40;99.90;;;;;;4944220;28;20067;-90
2022/10/25 02:24:40;;;;;;;0.50;0.50;;;13.30;99.90;;;;;;4972829;28;21117;-87
2022/10/25 02:31:03;;;;;;;0.50;0.50;;;13.20;99.90;;;;;;4955409;28;20522;-89
2022/10/25 02:34:12;;;;;;;0.50;0.50;;;13.30;99.90;;;;;;4969959;28;20075;-88
2022/10/25 02:37:40;;;;;;;;;;;;;;;;;;;;;
2022/10/25 02:44:36;;;;;;;0.50;0.50;;;13.40;99.90;;;;;;4905140;28;20405;-89
2022/10/25 02:47:42;;;;;;;0.50;0.50;;;13.50;99.90;;;;;;4908680;28;20054;-90
2022/10/25 02:50:42;;;;;;;0.50;0.50;;;13.50;99.90;;;;;;4888715;28;20046;-90
2022/10/25 02:53:38;;;;;;;0.50;0.50;;;13.60;99.90;;;;;;4925812;28;20156;-89
2022/10/25 02:56:41;;;;;;;0.50;0.50;;;13.50;99.90;;;;;;4987213;28;20052;-89
2022/10/25 03:04:09;;;;;;;0.60;0.60;;;13.40;99.90;;;;;;5011523;28;20047;-89
2022/10/25 03:07:22;;;;;;;;;;;;;;;;;;;;;
2022/10/25 03:10:05;;;;;;;0.50;0.50;;;13.30;99.90;;;;;;4964363;28;20045;-89
2022/10/25 03:13:02;;;;;;;0.50;0.50;;;13.30;99.90;;;;;;4960919;28;20261;-88
2022/10/25 03:16:03;;;;;;;0.50;0.50;;;13.30;99.90;;;;;;4966197;28;20928;-89
2022/10/25 03:19:06;;;;;;;0.60;0.60;;;13.40;99.90;;;;;;4952013;28;20049;-87
2022/10/25 03:22:17;;;;;;;0.50;0.50;;;13.40;99.90;;;;;;4971884;28;20055;-86
2022/10/25 03:25:20;;;;;;;;;;;;;;;;;;;;;
2022/10/25 03:31:41;;;;;;;0.50;0.50;;;13.30;99.90;;;;;;4969735;28;20933;-90
2022/10/25 03:45:09;;;;;;;0.50;0.50;;;13.40;99.90;;;;;;4851918;29;20044;-90
2022/10/25 03:52:01;;;;;;;0.50;0.50;;;13.60;99.90;;;;;;4810079;29;20087;-88
2022/10/25 03:54:38;;;;;;;0.50;0.50;;;13.60;99.90;;;;;;5009931;28;20040;-88
2022/10/25 04:00:48;;;;;;;0.50;0.50;;;13.60;99.90;;;;;;4989530;28;20113;-89
2022/10/25 04:03:48;;;;;;;0.50;0.50;;;13.70;99.90;;;;;;4996932;28;20870;-90
2022/10/25 04:06:30;;;;;;;0.60;0.60;;;13.60;99.90;;;;;;4901654;28;20315;-88
2022/10/25 04:09:28;;;;;;;0.60;0.60;;;13.70;99.90;;;;;;5003808;28;20144;-94
2022/10/25 04:12:03;;;;;;;0.50;0.50;;;13.70;99.90;;;;;;4980251;28;20052;-89
2022/10/25 04:15:20;;;;;;;0.50;0.50;;;13.70;99.90;;;;;;4996516;28;20856;-92
2022/10/25 04:18:18;;;;;;;0.50;0.50;;;13.70;99.90;;;;;;4987690;28;20517;-90
2022/10/25 04:24:01;;;;;;;0.50;0.50;;;13.70;99.90;;;;;;5024880;28;20052;-90
2022/10/25 04:26:40;;;;;;;0.50;0.50;;;13.80;99.90;;;;;;5006767;28;20664;-87
2022/10/25 04:30:14;;;;;;;0.50;0.50;;;13.80;99.90;;;;;;5004595;28;20055;-89
2022/10/25 04:33:52;;;;;;;0.50;0.50;;;13.80;99.90;;;;;;4920506;28;20423;-90
2022/10/25 04:36:38;;;;;;;0.50;0.50;;;13.70;99.90;;;;;;4960376;28;20390;-92
2022/10/25 04:42:41;;;;;;;0.50;0.50;;;13.70;99.90;;;;;;4939656;28;20781;-87
2022/10/25 04:45:13;;;;;;;0.50;0.50;;;13.70;99.90;;;;;;4924382;28;20053;-87
2022/10/25 04:47:51;;;;;;;0.50;0.50;;;13.70;99.90;;;;;;4897950;28;20042;-88
2022/10/25 04:50:29;;;;;;;;;;;;;;;;;;;;;
2022/10/25 04:53:24;;;;;;;0.50;0.50;;;13.70;99.90;;;;;;4909444;28;20482;-88
2022/10/25 04:56:18;;;;;;;;;;;;;;;;;;;;;
2022/10/25 04:59:35;;;;;;;0.80;0.80;;;13.80;99.90;;;;;;4931716;28;20412;-89
2022/10/25 05:05:43;;;;;;;0.50;0.50;;;13.60;99.90;;;;;;4888263;28;20136;-89
2022/10/25 05:08:39;;;;;;;0.50;0.50;;;13.50;99.90;;;;;;4908613;28;20336;-89
2022/10/25 05:11:31;;;;;;;0.50;0.50;;;13.50;99.90;;;;;;4915732;28;20920;-90
2022/10/25 05:14:35;;;;;;;0.50;0.50;;;13.40;99.90;;;;;;4970002;28;20064;-88
2022/10/25 05:17:01;;;;;;;0.50;0.50;;;13.40;99.90;;;;;;4933327;28;20050;-88
2022/10/25 05:24:10;;;;;;;0.60;0.60;;;13.30;99.90;;;;;;4943225;28;20519;-91
2022/10/25 05:26:58;;;;;;;0.50;0.50;;;13.30;99.90;;;;;;4910076;28;20952;-89
2022/10/25 05:29:34;;;;;;;0.50;0.50;;;13.20;99.90;;;;;;4946728;28;20221;-87
2022/10/25 05:32:16;;;;;;;0.60;0.60;;;13.10;99.90;;;;;;4975217;28;21265;-87
2022/10/25 05:35:25;;;;;;;0.50;0.50;;;13.10;99.90;;;;;;5007250;28;20345;-88
2022/10/25 05:38:29;;;;;;;0.50;0.50;;;13.10;99.90;;;;;;5000555;28;20737;-89
2022/10/25 05:41:25;;;;;;;0.50;0.50;;;13.20;99.90;;;;;;4939850;28;20142;-88
2022/10/25 05:44:40;;;;;;;0.50;0.50;;;13.20;99.90;;;;;;4911242;28;20051;-91
2022/10/25 05:47:53;;;;;;;0.50;0.50;;;13.30;99.90;;;;;;4959654;28;20056;-89
2022/10/25 05:51:15;;;;;;;0.50;0.50;;;13.20;99.90;;;;;;4929994;28;20601;-92
2022/10/25 05:54:32;;;;;;;0.50;0.50;;;13.30;99.90;;;;;;4953303;28;20055;-90
2022/10/25 05:57:34;;;;;;;0.50;0.50;;;13.30;99.90;;;;;;4987699;28;20126;-91
2022/10/25 06:00:40;;;;;;;0.50;0.50;;;13.30;99.90;;;;;;4956099;28;20045;-92
2022/10/25 06:03:40;;;;;;;0.50;0.50;;;13.30;99.90;;;;;;4992319;28;20594;-89
2022/10/25 06:06:22;;;;;;;0.50;0.50;;;13.40;99.90;;;;;;4999727;28;20051;-90
2022/10/25 06:12:40;;;;;;;0.50;0.50;;;13.40;99.90;;;;;;5021185;28;20642;-88
2022/10/25 06:15:32;;;;;;;0.50;0.50;;;13.30;99.90;;;;;;4991135;28;20090;-88
2022/10/25 06:21:29;;;;;;;0.60;0.60;;;13.20;99.90;;;;;;4953371;28;20482;-91
2022/10/25 06:27:49;;;;;;;0.50;0.50;;;13.10;99.90;;;;;;4911145;28;20056;-88
2022/10/25 06:30:25;;;;;;;0.50;0.50;;;13.20;99.90;;;;;;4929962;28;20045;-85
2022/10/25 06:37:25;;;;;;;0.50;0.50;;;13.20;99.90;;;;;;4927074;28;20541;-89
2022/10/25 06:40:23;;;;;;;0.60;0.60;;;13.20;99.90;;;;;;4928666;28;20058;-89
2022/10/25 06:43:37;;;;;;;0.50;0.50;;;13.20;99.90;;;;;;4948409;28;20222;-89
2022/10/25 06:46:44;;;;;;;0.50;0.50;;;13.20;99.90;;;;;;4956329;28;20604;-86
2022/10/25 06:50:06;;;;;;;0.50;0.50;;;13.50;99.90;;;;;;4979459;28;20052;-94
2022/10/25 06:53:33;;;;;;;;;;;;;;;;;;;;;
2022/10/25 06:56:41;;;;;;;0.50;0.50;;;13.60;99.90;;;;;;5014307;28;20556;-87
2022/10/25 07:00:12;;;;;;;0.50;0.50;;;13.70;99.90;;;;;;4921291;28;20068;-85
2022/10/25 07:02:55;;;;;;;0.50;0.50;;;13.80;99.90;;;;;;4828401;29;20056;-87
2022/10/25 07:05:47;;;;;;;0.50;0.50;;;13.90;99.90;;;;;;4931520;28;20053;-87
2022/10/25 07:08:35;;;;;;;0.50;0.50;;;13.80;99.90;;;;;;4927053;28;20064;-82
2022/10/25 07:11:32;;;;;;;0.50;0.50;;;13.70;99.90;;;;;;4938738;28;20947;-89
2022/10/25 07:14:37;;;;;;;0.50;0.50;;;13.60;99.90;;;;;;4908017;28;20050;-90
2022/10/25 07:17:47;;;;;;;0.50;0.50;;;13.70;99.90;;;;;;4876935;28;20406;-89
2022/10/25 07:20:49;;;;;;;0.50;0.50;;;13.80;99.90;;;;;;4939826;28;20359;-91
2022/10/25 07:23:41;;;;;;;0.50;0.50;;;13.90;99.90;;;;;;4942734;28;20041;-90
2022/10/25 07:26:27;;;;;;;0.50;0.50;;;13.90;99.90;;;;;;4947676;28;20069;-89
2022/10/25 07:29:09;;;;;;;0.50;0.50;;;14.00;99.90;;;;;;4998306;28;20463;-88
2022/10/25 07:31:40;;;;;;;0.50;0.50;;;14.10;99.90;;;;;;4997277;28;20066;-84
2022/10/25 07:34:24;;;;;;;0.50;0.50;;;14.20;99.90;;;;;;5009392;28;20379;-94
2022/10/25 07:37:36;;;;;;;0.50;0.50;;;14.10;99.90;;;;;;5016333;28;20050;-90
2022/10/25 07:40:02;;;;;;;0.50;0.50;;;14.00;99.90;;;;;;4957930;28;20165;-86
2022/10/25 07:43:36;;;;;;;;;;;;;;;;;;;;;
2022/10/25 07:46:18;;;;;;;0.50;0.50;;;14.30;99.90;;;;;;4940690;28;20415;-89
2022/10/25 07:48:59;;;;;;;0.50;0.50;;;14.50;99.90;;;;;;4947801;28;20864;-94
2022/10/25 07:52:25;;;;;;;0.50;0.50;;;14.70;99.90;;;;;;4962405;28;20465;-95
2022/10/25 07:55:35;;;;;;;;;;;;;;;;;;;;;
2022/10/25 08:02:24;;;;;;;0.50;0.50;;;14.60;99.90;;;;;;4945465;28;20092;-92
2022/10/25 08:04:52;;;;;;;0.50;0.50;;;14.60;99.90;;;;;;4927712;28;20085;-88
2022/10/25 08:08:13;;;;;;;0.50;0.50;;;14.60;99.90;;;;;;4941952;28;20049;-90
2022/10/25 08:11:02;;;;;;;;;;;;;;;;;;;;;
2022/10/25 08:16:57;;;;;;;0.50;0.50;;;14.90;99.90;;;;;;4959032;28;20048;-89
2022/10/25 08:19:33;;;;;;;0.45;0.45;;;15.00;99.90;;;;;;4965085;28;20051;-88
2022/10/25 08:23:01;;;;;;;0.50;0.50;;;15.00;99.90;;;;;;5011733;28;20040;-89
2022/10/25 08:26:27;;;;;;;;;;;;;;;;;;;;;
2022/10/25 08:29:35;;;;;;;0.50;0.50;;;14.90;99.90;;;;;;4901185;28;20915;-92
2022/10/25 08:32:28;;;;;;;0.40;0.40;;;15.20;99.90;;;;;;4915363;28;20063;-89
2022/10/25 08:35:20;;;;;;;;;;;;;;;;;;;;;
2022/10/25 08:38:18;;;;;;;0.43;0.43;;;15.30;99.90;;;;;;4942976;28;20390;-90
2022/10/25 08:41:50;;;;;;;0.50;0.50;;;15.40;99.90;;;;;;4965009;28;20547;-88
2022/10/25 08:45:12;;;;;;;0.40;0.40;;;15.40;99.90;;;;;;4998397;28;20052;-91
2022/10/25 08:47:57;;;;;;;0.50;0.50;;;15.40;99.90;;;;;;4918549;28;20062;-87
2022/10/25 08:51:24;;;;;;;0.50;0.50;;;15.20;99.90;;;;;;4913127;28;20071;-86
2022/10/25 08:54:17;;;;;;;0.43;0.43;;;15.10;99.90;;;;;;4860812;28;20047;-88
2022/10/25 08:57:11;;;;;;;0.50;0.50;;;15.10;99.90;;;;;;4903217;28;20050;-93
2022/10/25 09:04:02;;;;;;;0.50;0.50;;;15.60;99.90;;;;;;4958208;28;20891;-95
2022/10/25 09:10:51;;;;;;;0.50;0.50;;;15.50;99.90;;;;;;4879962;28;20085;-87
2022/10/25 09:13:57;;;;;;;0.50;0.50;;;15.50;99.90;;;;;;4970443;28;20052;-86
2022/10/25 09:17:09;;;;;;;0.50;0.50;;;15.70;99.90;;;;;;4944312;28;20505;-90
2022/10/25 09:20:27;;;;;;;0.50;0.50;;;15.90;99.90;;;;;;4914053;28;20933;-89
2022/10/25 09:23:36;;;;;;;0.50;0.50;;;16.20;99.90;;;;;;4955327;28;20054;-92
2022/10/25 09:26:31;;;;;;;;;;;16.10;99.90;;;;;;4976215;28;20528;-91
2022/10/25 09:29:48;;;;;;;0.40;0.40;;;16.00;99.90;;;;;;4926757;28;19932;-87
2022/10/25 09:33:12;;;;;;;0.40;0.40;;;15.90;99.90;;;;;;4850297;29;20052;-90
2022/10/25 09:36:05;;;;;;;0.50;0.50;;;15.70;99.90;;;;;;4855800;29;20063;-93
2022/10/25 09:39:06;;;;;;;0.40;0.40;;;15.90;99.90;;;;;;4851790;29;20055;-88
2022/10/25 09:42:12;;;;;;;;;;;;;;;;;;;;;
2022/10/25 09:45:39;;;;;;;0.50;0.50;;;16.20;99.90;;;;;;4860200;29;20217;-88
2022/10/25 09:48:45;;;;;;;0.50;0.50;;;16.20;99.90;;;;;;4859170;29;20730;-89
2022/10/25 09:55:39;;;;;;;;;;;;;;;;;;;;;
2022/10/25 10:01:51;;;;;;;0.50;0.50;;;16.10;99.90;;;;;;4843780;29;20060;-90
2022/10/25 10:05:13;;;;;;;0.40;0.40;;;16.10;99.90;;;;;;4870664;29;20665;-87
2022/10/25 10:08:07;;;;;;;0.40;0.40;;;16.00;99.90;;;;;;4869747;29;20501;-90
2022/10/25 10:11:21;;;;;;;;;;;;;;;;;;;;;
2022/10/25 10:14:31;;;;;;;0.40;0.40;;;16.20;99.90;;;;;;4905342;28;20939;-90
2022/10/25 10:17:10;;;;;;;0.40;0.40;;;16.20;99.90;;;;;;4917425;28;20061;-88
2022/10/25 10:20:15;;;;;;;;;;;;;;;;;;;;;
2022/10/25 10:22:45;;;;;;;0.40;0.40;;;16.40;99.90;;;;;;4942641;28;20057;-90
2022/10/25 10:25:59;;;;;;;0.40;0.40;;;16.80;99.90;;;;;;4939925;28;20152;-90
2022/10/25 10:28:37;;;;;;;0.40;0.40;;;16.90;99.90;;;;;;4938268;28;20046;-90
2022/10/25 10:31:19;;;;;;;0.50;0.50;;;17.00;99.90;;;;;;4915094;28;20485;-88
2022/10/25 10:34:30;;;;;;;0.50;0.50;;;16.90;99.90;;;;;;4927270;28;20053;-88
2022/10/25 10:37:17;;;;;;;0.40;0.40;;;17.00;99.90;;;;;;4949408;28;20049;-91
2022/10/25 10:40:00;;;;;;;0.40;0.40;;;16.80;99.90;;;;;;4939802;28;20462;-90
2022/10/25 10:42:31;;;;;;;0.40;0.40;;;16.80;99.90;;;;;;4932834;28;20476;-86
2022/10/25 10:45:37;;;;;;;0.40;0.40;;;16.80;99.90;;;;;;4950581;28;20425;-92
2022/10/25 10:48:19;;;;;;;0.40;0.40;;;16.80;99.90;;;;;;4930013;28;20061;-83
2022/10/25 10:50:50;;;;;;;0.50;0.50;;;16.60;99.90;;;;;;4967420;28;20770;-87
2022/10/25 10:53:42;;;;;;;0.50;0.50;;;16.60;99.90;;;;;;4997441;28;20352;-88
2022/10/25 11:03:49;;;;;;;0.50;0.50;;;16.40;99.90;;;;;;4746860;29;20962;-93
2022/10/25 11:09:29;;;;;;;0.40;0.40;;;16.80;99.90;;;;;;4846245;29;20209;-83
2022/10/25 11:13:03;;;;;;;;;;;;;;;;;;;;;
2022/10/25 11:16:22;;;;;;;0.50;0.50;;;17.30;99.90;;;;;;4832714;29;20085;-86
2022/10/25 11:23:40;;;;;;;0.40;0.40;;;17.90;99.90;;;;;;4807895;29;20187;-89
2022/10/25 11:30:10;;;;;;;0.40;0.40;;;17.40;99.90;;;;;;4777825;28;20052;-87
2022/10/25 11:33:20;;;;;;;0.40;0.40;;;17.70;99.90;;;;;;4933099;28;20099;-89
2022/10/25 11:36:05;;;;;;;0.40;0.40;;;17.20;99.90;;;;;;4923395;28;20117;-85
2022/10/25 11:39:10;;;;;;;0.40;0.40;;;17.70;99.90;;;;;;4917802;28;20287;-85
2022/10/25 11:42:17;;;;;;;0.45;0.45;;;17.60;99.90;;;;;;4976718;28;20037;-88
2022/10/25 11:45:02;;;;;;;0.40;0.40;;;17.70;99.90;;;;;;4989277;28;20044;-90
2022/10/25 11:47:59;;;;;;;0.40;0.40;;;17.30;99.90;;;;;;4949430;28;20060;-92
2022/10/25 11:51:03;;;;;;;0.40;0.40;;;17.20;99.90;;;;;;4922422;28;20045;-87
2022/10/25 12:05:10;;;;;;;0.40;0.40;;;17.00;99.90;;;;;;4904240;28;20492;-85
2022/10/25 12:08:46;;;;;;;;;;;;;;;;;;;;;
2022/10/25 12:15:55;;;;;;;0.40;0.40;;;17.00;99.90;;;;;;4828765;29;20115;-93
2022/10/25 12:22:58;;;;;;;0.40;0.40;;;16.80;99.90;;;;;;4865324;28;20062;-93
2022/10/25 12:26:14;;;;;;;0.40;0.40;;;16.80;99.90;;;;;;4921967;28;20054;-85
2022/10/25 12:29:27;;;;;;;0.40;0.40;;;16.70;99.90;;;;;;4906123;28;20066;-89
2022/10/25 12:32:45;;;;;;;0.47;0.47;;;16.90;99.90;;;;;;4899126;28;21147;-87
2022/10/25 12:35:30;;;;;;;0.40;0.40;;;17.00;99.90;;;;;;4924243;28;20061;-86
2022/10/25 12:38:26;;;;;;;0.40;0.40;;;17.10;99.90;;;;;;4924142;28;20151;-85
2022/10/25 12:45:06;;;;;;;0.40;0.40;;;17.90;99.90;;;;;;4940623;28;20088;-86
2022/10/25 12:48:13;;;;;;;;;;;;;;;;;;;;;
2022/10/25 12:59:01;;;;;;;0.50;0.50;;;17.90;99.90;;;;;;5003302;28;20039;-91
2022/10/25 13:02:46;;;;;;;;;;;;;;;;;;;;;
2022/10/25 13:05:37;;;;;;;0.50;0.50;;;18.20;99.90;;;;;;4987891;28;20516;-89
2022/10/25 13:12:15;;;;;;;0.50;0.50;;;18.30;99.90;;;;;;4970713;28;20789;-90
2022/10/25 13:15:49;;;;;;;;;;;;;;;;;;;;;
2022/10/25 13:22:58;;;;;;;0.40;0.40;;;17.30;99.90;;;;;;4980133;28;20052;-88
2022/10/25 13:26:41;;;;;;;0.40;0.40;;;17.20;99.90;;;;;;4923390;28;20050;-90
2022/10/25 13:29:21;;;;;;;0.50;0.50;;;17.40;99.90;;;;;;4953836;28;20091;-85
2022/10/25 13:32:54;;;;;;;;;;;;;;;;;;;;;
2022/10/25 13:36:04;;;;;;;0.47;0.47;;;18.10;99.90;;;;;;5013850;28;20185;-86
2022/10/25 13:39:34;;;;;;;0.50;0.50;;;18.10;99.90;;;;;;4994893;28;20829;-91
2022/10/25 13:42:59;;;;;;;0.50;0.50;;;17.70;99.90;;;;;;4950249;28;20184;-88
2022/10/25 13:49:31;;;;;;;0.50;0.50;;;17.30;99.90;;;;;;4983507;28;20359;-90
2022/10/25 13:56:27;;;;;;;0.50;0.50;;;17.90;99.90;;;;;;4905825;28;20050;-89
2022/10/25 13:59:57;;;;;;;0.50;0.50;;;17.90;99.90;;;;;;4986345;28;20040;-87
2022/10/25 14:06:15;;;;;;;0.50;0.50;;;17.70;99.90;;;;;;4954870;28;20147;-88
2022/10/25 14:09:48;;;;;;;0.50;0.50;;;17.80;99.90;;;;;;5006157;27;20044;-91
2022/10/25 14:16:42;;;;;;;0.50;0.50;;;17.70;99.90;;;;;;4951518;28;20092;-91
2022/10/25 14:22:54;;;;;;;0.50;0.50;;;17.60;99.90;;;;;;4900236;28;20376;-86
2022/10/25 14:25:57;;;;;;;0.50;0.50;;;17.70;99.90;;;;;;4928464;28;20093;-88
2022/10/25 14:28:45;;;;;;;0.45;0.45;;;17.80;99.90;;;;;;4892258;28;20054;-92
2022/10/25 14:31:23;;;;;;;0.50;0.50;;;17.90;99.90;;;;;;4905153;28;20210;-85
2022/10/25 14:37:11;;;;;;;;;;;;;;;;;;;;;
2022/10/25 14:40:29;;;;;;;;;;;;;;;;;;;;;
2022/10/25 14:55:01;;;;;;;0.40;0.40;;;17.00;99.90;;;;;;4979503;28;20049;-87
2022/10/25 14:57:39;;;;;;;0.43;0.43;;;17.10;99.90;;;;;;5031343;28;20484;-87
2022/10/25 15:04:32;;;;;;;0.40;0.40;;;17.00;99.90;;;;;;4981915;28;20780;-90
2022/10/25 15:07:38;;;;;;;0.50;0.50;;;16.80;99.90;;;;;;4950576;28;20188;-89
2022/10/25 15:10:50;;;;;;;0.50;0.50;;;16.70;99.90;;;;;;4967819;28;20041;-91
2022/10/25 15:13:55;;;;;;;0.50;0.50;;;16.60;99.90;;;;;;4959265;28;20067;-91
2022/10/25 15:16:48;;;;;;;0.40;0.40;;;16.60;99.90;;;;;;4993150;28;20068;-89
2022/10/25 15:23:21;;;;;;;0.50;0.50;;;16.50;99.90;;;;;;4924620;28;20417;-90
2022/10/25 15:25:53;;;;;;;0.50;0.50;;;16.40;99.90;;;;;;4967036;28;20901;-88
2022/10/25 15:28:46;;;;;;;0.40;0.40;;;16.30;99.90;;;;;;5019297;28;20048;-91
2022/10/25 15:32:04;;;;;;;0.40;0.40;;;16.40;99.90;;;;;;5018131;28;20079;-89
2022/10/25 15:34:52;;;;;;;0.40;0.40;;;16.30;99.90;;;;;;5008835;28;20056;-88
2022/10/25 15:37:19;;;;;;;;;;;16.00;99.90;;;;;;4993721;28;20195;-88
2022/10/25 15:39:47;;;;;;;0.50;0.50;;;16.00;99.90;;;;;;4966789;28;21056;-89
2022/10/25 15:42:14;;;;;;;0.40;0.40;;;15.90;99.90;;;;;;4974907;28;22410;-89
2022/10/25 15:44:40;;;;;;;0.40;0.40;;;15.80;99.90;;;;;;4983373;28;20071;-88
2022/10/25 15:47:30;;;;;;;0.40;0.40;;;15.70;99.90;;;;;;4941347;28;20485;-89
2022/10/25 15:49:56;;;;;;;0.40;0.40;;;15.60;99.90;;;;;;4989514;28;20127;-88
2022/10/25 15:52:25;;;;;;;0.40;0.40;;;15.50;99.90;;;;;;4953285;28;20119;-86
2022/10/25 15:54:53;;;;;;;0.40;0.40;;;15.50;99.90;;;;;;5008078;28;20075;-88
2022/10/25 15:57:19;;;;;;;0.40;0.40;;;15.50;99.90;;;;;;4967234;28;20087;-88
2022/10/25 15:59:45;;;;;;;0.50;0.50;;;15.30;99.90;;;;;;4981103;28;20575;-89
2022/10/25 16:02:18;;;;;;;0.50;0.50;;;15.20;99.90;;;;;;4994624;28;20521;-89
2022/10/25 16:04:44;;;;;;;;;;;15.20;99.90;;;;;;4988824;28;20047;-88
2022/10/25 16:07:11;;;;;;;0.40;0.40;;;15.00;99.90;;;;;;4986790;28;20297;-88
2022/10/25 16:09:43;;;;;;;0.50;0.50;;;15.00;99.90;;;;;;5004965;28;20044;-87
2022/10/25 16:12:17;;;;;;;0.50;0.50;;;14.90;99.90;;;;;;4992149;28;20325;-89
2022/10/25 16:14:43;;;;;;;0.50;0.50;;;14.80;99.90;;;;;;5002988;28;20116;-90
2022/10/25 16:17:10;;;;;;;0.50;0.50;;;14.80;99.90;;;;;;4984345;28;20477;-89
2022/10/25 16:19:36;;;;;;;0.50;0.50;;;14.70;99.90;;;;;;4989868;28;20053;-89
2022/10/25 16:22:02;;;;;;;0.43;0.43;;;14.60;99.90;;;;;;5003482;28;20044;-89
2022/10/25 16:24:31;;;;;;;0.50;0.50;;;14.60;99.90;;;;;;4977239;28;20425;-90
2022/10/25 16:26:58;;;;;;;0.50;0.50;;;14.50;99.90;;;;;;4969544;28;20039;-90
2022/10/25 16:29:24;;;;;;;0.50;0.50;;;14.30;99.90;;;;;;4979733;28;21061;-88
2022/10/25 16:31:51;;;;;;;0.50;0.50;;;14.30;99.90;;;;;;4963867;28;20043;-89
2022/10/25 16:34:18;;;;;;;0.50;0.50;;;14.20;99.90;;;;;;5009280;28;20573;-93
2022/10/25 16:36:49;;;;;;;0.50;0.50;;;14.10;99.90;;;;;;4994820;28;20916;-90
2022/10/25 16:39:15;;;;;;;0.50;0.50;;;14.00;99.90;;;;;;5004747;28;20535;-90
2022/10/25 16:41:43;;;;;;;0.50;0.50;;;13.90;99.90;;;;;;4966335;28;20913;-91
2022/10/25 16:44:11;;;;;;;0.45;0.45;;;13.80;99.90;;;;;;4953148;28;20573;-87
2022/10/25 16:46:37;;;;;;;0.50;0.50;;;13.90;99.90;;;;;;4950377;28;20059;-87
2022/10/25 16:49:10;;;;;;;0.50;0.50;;;13.80;99.90;;;;;;4998532;28;20032;-88
2022/10/25 16:51:38;;;;;;;0.50;0.50;;;13.70;99.90;;;;;;4986432;28;20139;-90
2022/10/25 16:54:05;;;;;;;0.50;0.50;;;13.70;99.90;;;;;;4995542;28;20545;-90
2022/10/25 16:56:31;;;;;;;0.50;0.50;;;13.60;99.90;;;;;;4991487;28;20071;-89
2022/10/25 16:58:59;;;;;;;0.50;0.50;;;13.50;99.90;;;;;;4978984;28;20588;-89
2022/10/25 17:01:32;;;;;;;0.50;0.50;;;13.50;99.90;;;;;;4972611;28;20063;-90
2022/10/25 17:03:59;;;;;;;0.50;0.50;;;13.50;99.90;;;;;;4968570;28;20327;-88
2022/10/25 17:06:25;;;;;;;0.50;0.50;;;13.50;99.90;;;;;;4987119;28;21311;-89
2022/10/25 17:08:50;;;;;;;0.50;0.50;;;13.40;99.90;;;;;;4973598;28;20078;-88
2022/10/25 17:11:19;;;;;;;0.50;0.50;;;13.40;99.90;;;;;;5007927;28;20950;-89
2022/10/25 17:13:44;;;;;;;0.50;0.50;;;13.30;99.90;;;;;;4999423;28;20048;-87
2022/10/25 17:16:13;;;;;;;0.50;0.50;;;13.30;99.90;;;;;;4938966;28;20053;-87
2022/10/25 17:18:39;;;;;;;0.50;0.50;;;13.30;99.90;;;;;;4981035;28;20406;-88
2022/10/25 17:21:16;;;;;;;0.40;0.40;;;13.30;99.90;;;;;;4995124;28;20592;-87
2022/10/25 17:23:41;;;;;;;0.47;0.47;;;13.40;99.90;;;;;;4965518;28;20044;-88
2022/10/25 17:26:10;;;;;;;0.50;0.50;;;13.40;99.90;;;;;;4947381;28;20870;-90
2022/10/25 17:28:59;;;;;;;0.50;0.50;;;13.30;99.90;;;;;;4971033;28;20059;-91
2022/10/25 17:31:27;;;;;;;0.50;0.50;;;13.30;99.90;;;;;;4968686;28;20347;-89
2022/10/25 17:33:56;;;;;;;0.50;0.50;;;13.20;99.90;;;;;;4950670;28;20266;-89
2022/10/25 17:36:22;;;;;;;0.50;0.50;;;13.20;99.90;;;;;;4979618;28;20137;-89
2022/10/25 17:38:54;;;;;;;0.50;0.50;;;13.10;99.90;;;;;;4991598;28;20066;-89
2022/10/25 17:41:20;;;;;;;0.50;0.50;;;13.00;99.90;;;;;;4997026;28;20052;-90
2022/10/25 17:43:45;;;;;;;0.50;0.50;;;13.00;99.90;;;;;;4993646;28;20040;-90
2022/10/25 17:46:18;;;;;;;0.50;0.50;;;12.90;99.90;;;;;;5009024;28;20036;-89
2022/10/25 17:48:44;;;;;;;0.50;0.50;;;12.90;99.90;;;;;;4994756;28;20580;-89
2022/10/25 17:51:12;;;;;;;0.50;0.50;;;12.90;99.90;;;;;;5002036;28;20223;-90
2022/10/25 17:53:39;;;;;;;0.50;0.50;;;13.00;99.90;;;;;;4999346;28;20105;-89
2022/10/25 17:56:16;;;;;;;0.50;0.50;;;12.90;99.90;;;;;;5009082;28;20106;-90
2022/10/25 17:58:44;;;;;;;0.50;0.50;;;12.80;99.90;;;;;;4960016;28;20044;-88
2022/10/25 18:01:17;;;;;;;0.50;0.50;;;12.80;99.90;;;;;;5008434;28;20059;-90
2022/10/25 18:03:43;;;;;;;0.50;0.50;;;12.80;99.90;;;;;;4994310;28;20388;-87
2022/10/25 18:06:11;;;;;;;0.50;0.50;;;12.80;99.90;;;;;;4971680;28;20044;-87
2022/10/25 18:08:40;;;;;;;0.50;0.50;;;12.80;99.90;;;;;;4940637;28;20594;-88
2022/10/25 18:11:21;;;;;;;0.50;0.50;;;12.70;99.90;;;;;;4946401;28;20136;-89
2022/10/25 18:13:52;;;;;;;0.50;0.50;;;12.70;99.90;;;;;;4979900;28;20056;-87
2022/10/25 18:16:29;;;;;;;0.50;0.50;;;12.60;99.90;;;;;;4966297;28;20154;-90
2022/10/25 18:19:00;;;;;;;0.50;0.50;;;12.60;99.90;;;;;;4957085;28;20755;-88
2022/10/25 18:21:30;;;;;;;0.50;0.50;;;12.50;99.90;;;;;;4987760;28;20057;-88
2022/10/25 18:24:07;;;;;;;0.60;0.60;;;12.50;99.90;;;;;;4986607;28;20155;-90
2022/10/25 18:26:34;;;;;;;0.50;0.50;;;12.50;99.90;;;;;;5004839;28;20075;-91
2022/10/25 18:29:00;;;;;;;0.50;0.50;;;12.50;99.90;;;;;;5015503;28;20298;-89
2022/10/25 18:31:26;;;;;;;0.50;0.50;;;12.50;99.90;;;;;;4984902;28;20071;-88
2022/10/25 18:33:57;;;;;;;0.50;0.50;;;12.50;99.90;;;;;;4993079;28;20040;-89
2022/10/25 18:36:24;;;;;;;0.50;0.50;;;12.40;99.90;;;;;;5001021;28;20035;-87
2022/10/25 18:38:51;;;;;;;0.50;0.50;;;12.50;99.90;;;;;;5000933;28;20116;-87
2022/10/25 18:41:28;;;;;;;0.50;0.50;;;12.40;99.90;;;;;;5012617;28;20288;-88
2022/10/25 18:43:55;;;;;;;0.50;0.50;;;12.50;99.90;;;;;;4979027;28;20399;-87
2022/10/25 18:46:22;;;;;;;0.50;0.50;;;12.40;99.90;;;;;;4980286;28;20494;-88
2022/10/25 18:48:50;;;;;;;0.50;0.50;;;12.40;99.90;;;;;;5004863;28;20071;-88
2022/10/25 18:51:18;;;;;;;0.50;0.50;;;12.40;99.90;;;;;;4999945;28;20055;-89
2022/10/25 18:53:44;;;;;;;0.50;0.50;;;12.30;99.90;;;;;;5003182;28;20549;-87
2022/10/25 18:56:12;;;;;;;0.50;0.50;;;12.30;99.90;;;;;;5004984;28;20239;-90
2022/10/25 18:58:41;;;;;;;0.60;0.60;;;12.30;99.90;;;;;;4997801;28;20059;-91
2022/10/25 19:01:15;;;;;;;0.50;0.50;;;12.20;99.90;;;;;;5012269;28;20568;-91
2022/10/25 19:03:42;;;;;;;0.50;0.50;;;12.20;99.90;;;;;;5024447;28;20056;-89